createdAt,value
2019-02-28T00:02:25.193Z,150.97
2019-02-28T00:04:52.222Z,149.70
2019-02-28T00:07:19.356Z,150.15
2019-02-28T00:09:46.483Z,150.27
2019-02-28T00:12:14.419Z,150.80
2019-02-28T00:14:42.024Z,152.75
2019-02-28T00:17:09.850Z,150.38
2019-02-28T00:19:37.039Z,151.15
2019-02-28T00:22:04.913Z,149.97
2019-02-28T00:24:34.586Z,151.97
2019-02-28T00:27:01.621Z,152.00
2019-02-28T00:29:33.699Z,151.63
2019-02-28T00:32:01.045Z,156.80
2019-02-28T00:34:28.256Z,155.78
2019-02-28T00:36:55.282Z,154.68
2019-02-28T00:39:22.531Z,157.88
2019-02-28T00:41:50.246Z,157.22
2019-02-28T00:44:18.372Z,156.78
2019-02-28T00:46:45.553Z,155.95
2019-02-28T00:49:12.885Z,154.05
2019-02-28T00:51:40.543Z,154.40
2019-02-28T00:54:08.536Z,154.95
2019-02-28T00:56:36.883Z,155.70
2019-02-28T00:59:03.890Z,153.95
2019-02-28T01:01:30.973Z,157.15
2019-02-28T01:03:59.127Z,156.28
2019-02-28T01:06:26.396Z,155.55
2019-02-28T01:08:56.054Z,157.80
2019-02-28T01:11:23.300Z,157.30
2019-02-28T01:13:50.744Z,159.45
2019-02-28T01:16:19.408Z,157.62
2019-02-28T01:18:46.753Z,156.87
2019-02-28T01:21:14.135Z,157.97
2019-02-28T01:23:41.178Z,158.72
2019-02-28T01:26:08.220Z,156.50
2019-02-28T01:28:35.269Z,158.93
2019-02-28T01:31:02.592Z,156.10
2019-02-28T01:33:29.659Z,156.45
2019-02-28T01:35:57.026Z,157.67
2019-02-28T01:38:25.303Z,155.55
2019-02-28T01:41:08.388Z,155.07
2019-02-28T01:44:35.494Z,155.97
2019-02-28T01:47:14.029Z,154.90
2019-02-28T01:54:19.523Z,155.20
2019-02-28T02:00:16.047Z,156.60
2019-02-28T02:03:46.072Z,157.37
2019-02-28T02:06:42.632Z,154.15
2019-02-28T02:09:46.261Z,152.95
2019-02-28T02:16:07.762Z,154.23
2019-02-28T02:19:18.506Z,154.03
2019-02-28T02:22:09.178Z,154.63
2019-02-28T02:24:46.437Z,154.07
2019-02-28T02:27:39.883Z,153.95
2019-02-28T02:30:27.139Z,154.05
2019-02-28T02:33:22.314Z,155.25
2019-02-28T02:36:10.934Z,153.95
2019-02-28T02:38:51.879Z,155.35
2019-02-28T02:41:33.809Z,155.50
2019-02-28T02:44:32.820Z,153.90
2019-02-28T02:47:44.851Z,154.30
2019-02-28T02:50:30.237Z,153.38
2019-02-28T02:53:26.306Z,152.87
2019-02-28T02:59:23.884Z,153.35
2019-02-28T03:02:06.644Z,152.95
2019-02-28T03:05:01.293Z,154.27
2019-02-28T03:07:40.294Z,155.78
2019-02-28T03:10:19.998Z,155.22
2019-02-28T03:13:12.439Z,155.18
2019-02-28T03:16:02.891Z,153.00
2019-02-28T03:18:56.879Z,153.50
2019-02-28T03:21:35.628Z,155.90
2019-02-28T03:24:20.203Z,156.82
2019-02-28T03:27:20.138Z,156.10
2019-02-28T03:30:02.894Z,157.12
2019-02-28T03:32:48.911Z,157.78
2019-02-28T03:35:40.581Z,156.60
2019-02-28T03:38:12.767Z,155.12
2019-02-28T03:41:06.987Z,154.72
2019-02-28T03:43:55.931Z,155.25
2019-02-28T03:46:39.096Z,154.38
2019-02-28T03:49:30.608Z,155.27
2019-02-28T03:52:16.691Z,154.87
2019-02-28T03:55:23.108Z,155.48
2019-02-28T03:58:18.088Z,154.42
2019-02-28T04:01:14.058Z,154.42
2019-02-28T04:03:53.687Z,156.63
2019-02-28T04:06:39.749Z,156.05
2019-02-28T04:09:27.233Z,153.95
2019-02-28T04:12:26.013Z,155.50
2019-02-28T04:15:10.164Z,154.27
2019-02-28T04:17:48.909Z,153.62
2019-02-28T04:20:47.448Z,156.30
2019-02-28T04:27:21.193Z,154.07
2019-02-28T04:30:45.796Z,154.97
2019-02-28T04:33:37.673Z,154.20
2019-02-28T04:36:20.498Z,156.87
2019-02-28T04:39:04.476Z,156.25
2019-02-28T04:41:53.962Z,156.02
2019-02-28T04:44:52.958Z,155.00
2019-02-28T04:47:40.532Z,156.35
2019-02-28T04:50:21.495Z,154.38
2019-02-28T04:53:52.916Z,155.52
2019-02-28T04:56:47.129Z,153.18
2019-02-28T04:59:45.285Z,154.57
2019-02-28T05:03:06.980Z,154.70
2019-02-28T05:07:05.862Z,154.82
2019-02-28T05:14:24.344Z,153.80
2019-02-28T05:19:56.275Z,154.78
2019-02-28T05:25:21.725Z,155.55
2019-02-28T05:28:28.653Z,154.18
2019-02-28T05:31:14.235Z,155.30
2019-02-28T05:34:37.306Z,155.05
2019-02-28T05:37:43.813Z,154.15
2019-02-28T05:40:41.388Z,153.38
2019-02-28T05:44:07.247Z,155.10
2019-02-28T05:46:43.869Z,154.80
2019-02-28T05:49:28.440Z,153.12
2019-02-28T05:52:08.890Z,155.03
2019-02-28T05:54:42.408Z,155.50
2019-02-28T05:57:56.951Z,156.40
2019-02-28T06:01:02.708Z,157.95
2019-02-28T06:03:38.846Z,157.95
2019-02-28T06:15:21.259Z,157.60
2019-02-28T06:18:27.053Z,156.65
2019-02-28T06:21:07.789Z,157.05
2019-02-28T06:23:44.769Z,157.32
2019-02-28T06:26:18.425Z,158.15
2019-02-28T06:28:58.010Z,158.37
2019-02-28T06:31:34.304Z,159.82
2019-02-28T06:34:33.368Z,157.45
2019-02-28T06:40:55.569Z,157.37
2019-02-28T07:02:41.117Z,158.20
2019-02-28T07:09:43.894Z,159.93
2019-02-28T07:13:46.067Z,162.03
2019-02-28T07:17:59.357Z,161.95
2019-02-28T07:32:36.679Z,163.40
2019-02-28T07:35:18.870Z,164.25
2019-02-28T07:38:15.745Z,163.57
2019-02-28T07:47:37.288Z,164.50
2019-02-28T07:50:23.610Z,164.82
2019-02-28T07:53:34.238Z,166.88
2019-02-28T07:59:21.810Z,167.13
2019-02-28T08:02:23.291Z,167.93
2019-02-28T08:04:58.733Z,165.50
2019-02-28T08:11:21.350Z,167.00
2019-02-28T08:14:04.629Z,167.43
2019-02-28T08:20:44.963Z,169.90
2019-02-28T08:23:29.841Z,168.30
2019-02-28T08:26:28.135Z,167.93
2019-02-28T08:29:19.461Z,168.85
2019-02-28T08:32:17.232Z,168.13
2019-02-28T08:38:25.237Z,168.95
2019-02-28T08:41:29.236Z,183.12
2019-02-28T08:44:03.384Z,172.02
2019-02-28T08:46:46.376Z,170.70
2019-02-28T08:49:31.304Z,170.97
2019-02-28T08:52:14.896Z,178.57
2019-02-28T08:58:26.723Z,171.40
2019-02-28T09:05:16.965Z,171.50
2019-02-28T09:08:01.055Z,175.45
2019-02-28T09:10:37.431Z,174.97
2019-02-28T09:16:55.214Z,174.57
2019-02-28T09:20:12.665Z,176.18
2019-02-28T09:22:53.078Z,176.70
2019-02-28T09:26:14.557Z,177.17
2019-02-28T09:29:12.913Z,177.02
2019-02-28T09:31:58.620Z,176.27
2019-02-28T09:34:38.002Z,175.50
2019-02-28T09:37:20.223Z,176.78
2019-02-28T09:40:50.737Z,177.27
2019-02-28T09:43:39.182Z,176.78
2019-02-28T09:46:47.525Z,177.15
2019-02-28T09:49:44.284Z,174.95
2019-02-28T09:52:25.662Z,177.53
2019-02-28T09:58:38.779Z,179.05
2019-02-28T10:01:16.277Z,178.30
2019-02-28T10:04:10.329Z,178.40
2019-02-28T10:06:51.483Z,183.12
2019-02-28T10:09:40.585Z,181.80
2019-02-28T10:20:16.992Z,180.12
2019-02-28T10:22:58.356Z,186.05
2019-02-28T10:25:57.041Z,184.60
2019-02-28T10:29:07.434Z,186.15
2019-02-28T10:35:52.719Z,185.95
2019-02-28T10:45:47.867Z,187.25
2019-02-28T10:49:21.076Z,187.57
2019-02-28T10:58:38.782Z,185.20
2019-02-28T11:02:20.434Z,184.80
2019-02-28T11:06:21.733Z,184.18
2019-02-28T11:09:04.478Z,184.00
2019-02-28T12:01:31.208Z,185.85
2019-02-28T12:04:57.007Z,184.57
2019-02-28T12:11:21.387Z,181.63
2019-02-28T12:14:45.842Z,186.28
2019-02-28T12:21:04.933Z,186.88
2019-02-28T12:24:32.378Z,186.25
2019-02-28T14:59:50.487Z,182.85
2019-02-28T15:23:51.243Z,173.93
2019-02-28T16:33:44.262Z,167.07
2019-02-28T16:36:46.027Z,166.15
2019-02-28T16:39:33.567Z,165.18
2019-02-28T16:42:12.492Z,170.97
2019-02-28T16:45:02.603Z,171.43
2019-02-28T16:48:03.026Z,171.02
2019-02-28T16:51:03.673Z,175.25
2019-02-28T17:02:45.502Z,169.47
2019-02-28T17:14:02.455Z,166.15
2019-02-28T17:16:38.164Z,164.07
2019-02-28T17:19:08.514Z,163.45
2019-02-28T17:21:52.092Z,160.88
2019-02-28T17:24:17.675Z,159.32
2019-02-28T17:27:10.520Z,162.07
2019-02-28T17:29:48.283Z,162.40
2019-02-28T17:32:15.652Z,160.52
2019-02-28T17:34:42.793Z,161.57
2019-02-28T17:37:10.016Z,161.30
2019-02-28T17:39:37.131Z,160.57
2019-02-28T17:42:08.538Z,170.95
2019-02-28T17:45:04.244Z,159.40
2019-02-28T17:48:21.961Z,159.18
2019-02-28T17:51:09.470Z,157.18
2019-02-28T17:54:31.750Z,154.68
2019-02-28T17:57:28.277Z,156.80
2019-02-28T18:00:23.787Z,155.82
2019-02-28T18:03:12.977Z,156.72
2019-02-28T18:06:47.215Z,156.57
2019-02-28T18:09:50.412Z,155.95
2019-02-28T18:13:10.261Z,154.82
2019-02-28T18:16:21.506Z,156.78
2019-02-28T18:19:41.791Z,157.20
2019-02-28T18:22:56.605Z,155.05
2019-02-28T18:25:52.336Z,155.07
2019-02-28T18:28:58.844Z,157.30
2019-02-28T18:31:26.142Z,159.32
2019-02-28T18:34:20.562Z,159.95
2019-02-28T18:36:46.288Z,161.60
2019-02-28T18:39:13.753Z,159.35
2019-02-28T18:41:42.301Z,158.35
2019-02-28T18:44:10.254Z,156.78
2019-02-28T18:46:37.397Z,158.07
2019-02-28T18:49:05.909Z,158.30
2019-02-28T18:51:33.029Z,156.60
2019-02-28T18:54:00.175Z,159.70
2019-02-28T18:56:27.298Z,160.72
2019-02-28T18:58:54.411Z,158.80
2019-02-28T19:01:21.636Z,160.95
2019-02-28T19:03:48.763Z,163.90
2019-02-28T19:06:15.895Z,159.78
2019-02-28T19:08:43.333Z,160.35
2019-02-28T19:11:10.454Z,160.15
2019-02-28T19:13:37.651Z,160.40
2019-02-28T19:16:05.087Z,160.95
2019-02-28T19:18:32.188Z,158.78
2019-02-28T19:21:08.201Z,162.62
2019-02-28T19:23:35.413Z,160.75
2019-02-28T19:26:02.526Z,161.37
2019-02-28T19:28:29.746Z,161.60
2019-02-28T19:30:57.203Z,162.47
2019-02-28T19:33:24.553Z,159.30
2019-02-28T19:35:51.866Z,160.30
2019-02-28T19:38:19.080Z,161.57
2019-02-28T19:40:46.288Z,159.78
2019-02-28T19:43:13.543Z,161.75
2019-02-28T19:45:41.747Z,161.50
2019-02-28T19:48:09.011Z,159.40
2019-02-28T19:50:36.158Z,161.28
2019-02-28T19:53:03.680Z,159.93
2019-02-28T19:55:30.852Z,161.52
2019-02-28T19:57:57.982Z,159.65
2019-02-28T20:00:25.135Z,158.97
2019-02-28T20:02:52.238Z,158.82
2019-02-28T20:05:19.379Z,160.90
2019-02-28T20:07:46.566Z,160.63
2019-02-28T20:10:14.785Z,161.45
2019-02-28T20:12:42.028Z,161.52
2019-02-28T20:15:11.348Z,161.20
2019-02-28T20:17:38.484Z,161.43
2019-02-28T20:20:09.458Z,162.77
2019-02-28T20:22:36.648Z,160.37
2019-02-28T20:25:05.451Z,162.37
2019-02-28T20:27:33.058Z,162.10
2019-02-28T20:30:08.718Z,161.70
2019-02-28T20:32:36.401Z,164.32
2019-02-28T20:35:04.588Z,164.18
2019-02-28T20:37:33.644Z,164.45
2019-02-28T20:40:00.779Z,163.80
2019-02-28T20:42:27.917Z,163.55
2019-02-28T20:44:55.116Z,163.68
2019-02-28T20:47:22.266Z,163.25
2019-02-28T20:49:49.797Z,163.57
2019-02-28T20:52:18.306Z,163.30
2019-02-28T20:54:45.444Z,163.90
2019-02-28T20:57:12.953Z,162.68
2019-02-28T20:59:41.196Z,164.07
2019-02-28T21:02:08.415Z,163.35
2019-02-28T21:04:36.709Z,164.18
2019-02-28T21:07:03.929Z,165.30
2019-02-28T21:09:32.927Z,165.47
2019-02-28T21:12:00.022Z,163.25
2019-02-28T21:14:27.197Z,161.05
2019-02-28T21:16:54.282Z,162.68
2019-02-28T21:19:21.602Z,164.10
2019-02-28T21:21:48.869Z,164.32
2019-02-28T21:24:16.331Z,163.92
2019-02-28T21:26:43.564Z,165.07
2019-02-28T21:29:10.841Z,163.43
2019-02-28T21:31:38.050Z,164.15
2019-02-28T21:34:05.357Z,162.55
2019-02-28T21:36:33.123Z,164.47
2019-02-28T21:39:00.448Z,162.12
2019-02-28T21:41:27.694Z,162.62
2019-02-28T21:43:55.311Z,163.20
2019-02-28T21:46:22.821Z,161.77
2019-02-28T21:48:49.985Z,162.00
2019-02-28T21:51:17.541Z,162.70
2019-02-28T21:53:44.584Z,160.10
2019-02-28T21:56:11.716Z,162.75
2019-02-28T21:58:38.926Z,162.90
2019-02-28T22:01:06.321Z,161.15
2019-02-28T22:03:33.572Z,162.03
2019-02-28T22:06:00.765Z,161.85
2019-02-28T22:08:27.880Z,163.57
2019-02-28T22:10:55.075Z,161.73
2019-02-28T22:13:22.159Z,160.80
2019-02-28T22:15:49.394Z,159.72
2019-02-28T22:18:16.493Z,159.50
2019-02-28T22:20:43.635Z,159.20
2019-02-28T22:23:10.733Z,158.22
2019-02-28T22:25:37.839Z,158.07
2019-02-28T22:28:05.142Z,157.12
2019-02-28T22:31:02.072Z,158.35
2019-02-28T22:33:51.810Z,158.90
2019-02-28T22:36:22.702Z,162.27
2019-02-28T22:38:49.805Z,158.95
2019-02-28T22:41:16.924Z,160.95
2019-02-28T22:43:43.997Z,161.03
2019-02-28T22:46:11.109Z,162.75
2019-02-28T22:48:38.381Z,156.82
2019-02-28T22:51:05.514Z,156.87
2019-02-28T22:53:32.599Z,163.15
2019-02-28T22:55:59.734Z,161.25
2019-02-28T22:58:26.861Z,168.47
2019-02-28T23:01:03.145Z,156.45
2019-02-28T23:03:32.001Z,154.87
2019-02-28T23:05:59.710Z,154.38
2019-02-28T23:08:26.894Z,154.57
2019-02-28T23:10:54.001Z,153.60
2019-02-28T23:13:21.104Z,154.10
2019-02-28T23:15:48.248Z,155.07
2019-02-28T23:18:15.376Z,155.00
2019-02-28T23:20:42.614Z,155.57
2019-02-28T23:23:09.728Z,154.07
2019-02-28T23:25:36.839Z,154.12
2019-02-28T23:28:12.251Z,155.07
2019-02-28T23:31:08.773Z,155.75
2019-02-28T23:33:36.047Z,155.90
2019-02-28T23:36:04.084Z,153.60
2019-02-28T23:38:37.841Z,153.12
2019-02-28T23:41:05.221Z,155.93
2019-02-28T23:43:34.172Z,152.22
2019-02-28T23:46:02.905Z,153.78
2019-02-28T23:48:30.006Z,152.57
2019-02-28T23:50:57.233Z,153.12
2019-02-28T23:53:24.370Z,152.32
2019-02-28T23:55:51.512Z,153.78
2019-02-28T23:58:18.652Z,153.50
